Time;durP1;ratioP1;P1;durP2;ratioP2;P2;SDS_P1;SDS_P2;PMS_P1;PMS_P2;Temp;Humidity;BMP_temperature;BMP_pressure;BME280_temperature;BME280_humidity;BME280_pressure;Samples;Min_cycle;Max_cycle;Signal;HPM_P1;HPM_P2
2021/01/26 05:45:35;;;;;;;16.17;9.88;;;;;;;0.26;84.62;98970.52;1662307;84;21209;-42
2021/01/26 05:48:19;;;;;;;16.90;10.40;;;;;;;0.32;84.44;98992.52;1793844;78;22587;-42
2021/01/26 05:50:47;;;;;;;16.95;11.00;;;;;;;0.31;84.35;98986.05;1772331;79;21374;-43
2021/01/26 05:53:30;;;;;;;16.85;10.88;;;;;;;0.34;84.08;98995.97;1763519;81;21174;-43
2021/01/26 05:56:13;;;;;;;21.17;11.40;;;;;;;0.39;83.58;99009.80;1724485;82;21182;-41
2021/01/26 06:01:30;;;;;;;17.82;10.48;;;;;;;0.55;83.10;99033.28;1799463;78;23005;-41
2021/01/26 06:04:10;;;;;;;15.80;9.35;;;;;;;0.55;82.78;99042.29;1769888;80;21679;-42
2021/01/26 06:06:52;;;;;;;12.88;7.87;;;;;;;0.58;82.62;99051.34;1736959;81;21166;-47
2021/01/26 06:09:42;;;;;;;12.28;8.10;;;;;;;0.62;82.15;99058.30;1712290;81;21180;-42
2021/01/26 06:12:14;;;;;;;11.85;7.35;;;;;;;0.65;81.71;99059.23;1712507;81;21182;-43
2021/01/26 06:14:51;;;;;;;13.75;7.95;;;;;;;0.70;81.26;99065.77;1721295;81;21228;-43
2021/01/26 06:17:22;;;;;;;16.10;8.00;;;;;;;0.74;81.17;99063.27;1702549;83;21481;-42
2021/01/26 06:20:18;;;;;;;17.62;8.35;;;;;;;0.77;80.90;99074.92;1716293;81;21200;-42
2021/01/26 06:22:56;;;;;;;13.18;8.38;;;;;;;0.81;80.75;99080.98;1643644;82;21310;-43
2021/01/26 06:25:35;;;;;;;13.25;8.30;;;;;;;0.86;80.30;99087.09;1690615;82;21243;-49
2021/01/26 06:29:13;;;;;;;10.82;7.10;;;;;;;0.88;79.97;99093.17;1683572;82;21158;-47
2021/01/26 06:38:01;;;;;;;11.18;6.67;;;;;;;0.99;79.24;99103.26;1710655;82;21832;-47
2021/01/26 06:42:09;;;;;;;10.30;6.60;;;;;;;1.02;79.38;99102.02;1714913;82;21625;-46
2021/01/26 06:45:23;;;;;;;11.83;7.10;;;;;;;1.04;79.05;99104.61;1712235;82;21186;-46
2021/01/26 06:48:28;;;;;;;18.00;8.00;;;;;;;1.10;79.06;99115.45;1667212;84;21256;-41
2021/01/26 06:51:52;;;;;;;13.53;6.37;;;;;;;1.24;79.08;99114.02;1764876;78;22648;-41
2021/01/26 06:54:43;;;;;;;13.83;7.35;;;;;;;1.25;79.25;99117.04;1734069;81;21164;-41
2021/01/26 06:57:28;;;;;;;12.65;7.85;;;;;;;1.30;78.87;99119.28;1729628;81;21169;-46
2021/01/26 07:00:31;;;;;;;11.78;7.17;;;;;;;1.36;78.49;99125.84;1681893;84;21350;-46
2021/01/26 07:03:38;;;;;;;10.35;6.47;;;;;;;1.39;77.81;99144.34;1678351;84;21209;-41
2021/01/26 07:06:22;;;;;;;11.70;6.50;;;;;;;1.41;77.15;99140.09;1674887;83;21212;-43
2021/01/26 07:09:24;;;;;;;9.10;6.10;;;;;;;1.48;77.39;99145.38;1799070;78;22696;-40
2021/01/26 07:12:46;;;;;;;10.30;6.80;;;;;;;1.43;77.72;99149.59;1763043;80;21219;-41
2021/01/26 07:15:34;;;;;;;9.48;5.87;;;;;;;1.41;78.00;99139.67;1761359;80;21173;-42
2021/01/26 07:18:48;;;;;;;9.43;5.97;;;;;;;1.39;77.85;99151.64;1757547;80;21313;-43
2021/01/26 07:26:18;;;;;;;9.30;6.03;;;;;;;1.36;77.97;99165.78;1718460;81;21178;-41
2021/01/26 07:30:35;;;;;;;10.82;6.30;;;;;;;1.35;77.99;99176.07;1710963;81;21312;-47
2021/01/26 07:39:30;;;;;;;9.63;5.72;;;;;;;1.36;78.67;99179.09;1697045;83;21250;-47
2021/01/26 07:43:18;;;;;;;8.38;6.08;;;;;;;1.39;78.99;99181.70;1665040;84;21152;-40
2021/01/26 07:46:50;;;;;;;13.75;6.60;;;;;;;1.40;78.78;99197.65;1660491;84;21339;-41
2021/01/26 07:50:18;;;;;;;9.30;6.67;;;;;;;1.39;79.08;99194.17;1673636;84;21368;-41
2021/01/26 07:52:55;;;;;;;10.23;6.03;;;;;;;1.40;79.19;99198.94;1642663;84;21367;-41
2021/01/26 07:55:43;;;;;;;9.50;6.42;;;;;;;1.42;79.00;99197.25;1661423;84;21109;-41
2021/01/26 07:58:18;;;;;;;10.35;6.47;;;;;;;1.52;79.28;99196.16;1796339;78;23335;-42
2021/01/26 08:00:50;;;;;;;11.10;6.37;;;;;;;1.54;79.10;99202.63;1741981;79;21740;-42
2021/01/26 08:03:25;;;;;;;15.83;7.20;;;;;;;1.64;78.24;99201.97;1773561;79;21102;-46
2021/01/26 08:05:57;;;;;;;9.95;6.50;;;;;;;1.74;78.14;99201.69;1774041;79;21717;-47
2021/01/26 08:08:30;;;;;;;11.00;6.92;;;;;;;1.78;77.66;99209.94;1770969;79;21675;-41
2021/01/26 08:11:25;;;;;;;11.95;7.35;;;;;;;1.81;77.74;99209.59;1771532;79;21166;-46
2021/01/26 08:14:08;;;;;;;10.65;6.15;;;;;;;1.81;77.40;99207.44;1736780;79;21240;-41
2021/01/26 08:17:04;;;;;;;9.95;6.40;;;;;;;1.80;77.44;99205.70;1727987;80;21439;-47
2021/01/26 08:20:36;;;;;;;9.18;6.40;;;;;;;1.81;77.65;99214.75;1733873;79;21582;-42
2021/01/26 08:28:18;;;;;;;9.13;6.17;;;;;;;1.89;76.76;99208.84;1768613;79;21210;-47
2021/01/26 08:30:56;;;;;;;12.33;6.72;;;;;;;1.93;76.72;99220.54;1767121;79;21197;-41
2021/01/26 08:33:31;;;;;;;9.53;6.05;;;;;;;1.96;76.81;99230.03;1771330;80;21154;-42
2021/01/26 08:36:25;;;;;;;10.82;6.78;;;;;;;1.98;76.59;99240.84;1771479;79;21661;-46
2021/01/26 08:39:07;;;;;;;10.45;6.12;;;;;;;2.02;76.86;99254.64;1767862;78;21167;-48
2021/01/26 08:42:00;;;;;;;9.30;5.90;;;;;;;2.05;76.21;99256.88;1776114;80;21135;-47
2021/01/26 08:44:36;;;;;;;8.58;6.22;;;;;;;2.11;76.11;99263.85;1773752;79;21170;-43
2021/01/26 08:47:41;;;;;;;9.48;5.85;;;;;;;2.19;75.48;99258.81;1771436;79;21912;-43
2021/01/26 08:50:14;;;;;;;10.65;5.83;;;;;;;2.25;75.56;99263.65;1773937;79;21652;-47
2021/01/26 08:52:42;;;;;;;9.20;5.95;;;;;;;2.34;75.62;99260.38;1773020;79;21143;-47
2021/01/26 08:55:32;;;;;;;10.55;6.45;;;;;;;2.42;75.09;99257.91;1772930;80;21183;-47
2021/01/26 08:58:04;;;;;;;8.93;5.90;;;;;;;2.50;74.63;99258.91;1771262;80;21313;-47
2021/01/26 09:00:40;;;;;;;12.47;7.12;;;;;;;2.56;74.01;99262.88;1768778;80;21676;-41
2021/01/26 09:03:33;;;;;;;8.25;6.12;;;;;;;2.57;74.01;99264.19;1768639;80;21209;-41
2021/01/26 09:06:14;;;;;;;9.95;6.40;;;;;;;2.61;73.98;99275.02;1765147;80;21199;-42
2021/01/26 09:08:47;;;;;;;9.73;6.72;;;;;;;2.62;73.88;99266.84;1768757;79;21171;-42
2021/01/26 09:11:32;;;;;;;13.35;7.92;;;;;;;2.61;73.82;99272.44;1765308;80;21206;-40
2021/01/26 09:14:40;;;;;;;10.90;7.47;;;;;;;2.61;73.78;99281.48;1761846;80;21318;-41
2021/01/26 09:17:32;;;;;;;14.35;7.40;;;;;;;2.59;73.74;99287.45;1765064;80;21480;-47
2021/01/26 09:24:43;;;;;;;14.20;9.75;;;;;;;2.55;74.23;99280.48;1759614;80;21103;-46
2021/01/26 09:28:38;;;;;;;16.15;10.72;;;;;;;2.56;74.12;99280.95;1764978;80;21308;-46
2021/01/26 09:32:06;;;;;;;25.80;11.65;;;;;;;2.56;74.38;99295.16;1762615;80;21151;-40
2021/01/26 09:40:12;;;;;;;12.53;8.18;;;;;;;2.52;74.10;99292.08;1764966;80;21114;-47
2021/01/26 09:43:36;;;;;;;15.30;8.03;;;;;;;2.49;74.70;99303.20;1763945;80;21167;-47
2021/01/26 09:49:26;;;;;;;12.87;10.17;;;;;;;2.52;74.91;99286.91;1782410;77;28571;-42
2021/01/26 09:52:06;;;;;;;13.30;10.55;;;;;;;2.54;75.27;99290.38;1743632;80;21174;-46
2021/01/26 09:54:42;;;;;;;17.27;10.68;;;;;;;2.61;75.15;99306.02;1737271;80;21304;-46
2021/01/26 09:57:18;;;;;;;12.55;9.38;;;;;;;2.62;75.30;99304.30;1740560;80;21182;-48
2021/01/26 09:59:55;;;;;;;14.13;9.15;;;;;;;2.64;75.46;99306.47;1711279;82;21238;-47
2021/01/26 10:02:28;;;;;;;11.97;8.00;;;;;;;2.65;75.82;99290.13;1685665;83;21373;-42
2021/01/26 10:04:57;;;;;;;14.10;8.48;;;;;;;2.72;75.83;99288.50;1682000;83;21330;-47
2021/01/26 10:07:26;;;;;;;13.13;8.43;;;;;;;2.77;75.81;99292.89;1704623;82;21503;-41
2021/01/26 10:10:15;;;;;;;14.40;9.98;;;;;;;2.83;75.78;99286.95;1686480;84;21321;-41
2021/01/26 10:14:09;;;;;;;12.13;8.53;;;;;;;2.89;75.41;99290.91;1693697;82;21145;-41
2021/01/26 10:18:31;;;;;;;12.53;8.63;;;;;;;2.92;75.09;99298.30;1693583;82;21137;-42
2021/01/26 10:26:45;;;;;;;14.35;10.65;;;;;;;3.07;75.23;99288.59;1687143;82;21153;-41
2021/01/26 10:30:50;;;;;;;22.77;12.55;;;;;;;3.17;74.67;99281.41;1700221;82;21480;-47
2021/01/26 10:37:28;;;;;;;16.75;11.73;;;;;;;3.30;74.19;99263.05;1693621;82;21140;-42
2021/01/26 10:40:22;;;;;;;11.80;9.03;;;;;;;3.37;73.11;99256.27;1687085;82;21328;-42
2021/01/26 10:43:09;;;;;;;11.95;9.35;;;;;;;3.41;72.97;99260.60;1689327;82;21174;-45
2021/01/26 10:45:52;;;;;;;12.80;7.92;;;;;;;3.46;73.27;99260.23;1693430;82;21748;-48
2021/01/26 10:48:33;;;;;;;16.07;9.58;;;;;;;3.50;72.87;99262.45;1680144;82;21166;-48
2021/01/26 10:51:26;;;;;;;12.53;8.10;;;;;;;3.52;72.98;99266.77;1685014;83;21177;-47
2021/01/26 10:53:54;;;;;;;10.10;7.78;;;;;;;3.54;72.44;99261.61;1680643;83;21218;-42
2021/01/26 10:56:26;;;;;;;11.48;8.68;;;;;;;3.56;72.42;99252.17;1675338;84;21197;-49
2021/01/26 10:58:58;;;;;;;11.45;7.90;;;;;;;3.57;72.17;99259.08;1686787;83;21139;-47
2021/01/26 11:01:28;;;;;;;20.43;9.83;;;;;;;3.56;72.25;99261.22;1690480;83;21141;-42
2021/01/26 11:03:57;;;;;;;10.63;8.15;;;;;;;3.58;72.66;99250.03;1649377;84;21163;-48
2021/01/26 11:06:26;;;;;;;11.57;7.72;;;;;;;3.62;73.04;99249.23;1684619;83;21990;-42
2021/01/26 11:09:13;;;;;;;9.83;7.12;;;;;;;3.71;72.95;99260.08;1670374;84;21195;-48
2021/01/26 11:12:21;;;;;;;8.25;6.28;;;;;;;3.76;72.42;99262.30;1689391;83;21262;-42
2021/01/26 11:19:15;;;;;;;9.23;7.03;;;;;;;3.80;72.49;99249.84;1670170;84;21317;-49
2021/01/26 11:22:19;;;;;;;7.95;5.80;;;;;;;3.82;72.03;99252.02;1686067;83;21875;-41
2021/01/26 11:25:11;;;;;;;9.25;7.03;;;;;;;3.82;72.06;99252.44;1685925;84;21677;-40
2021/01/26 11:28:17;;;;;;;7.08;4.95;;;;;;;3.82;72.56;99252.44;1684115;83;21515;-41
2021/01/26 11:31:22;;;;;;;6.12;4.92;;;;;;;3.82;71.21;99249.86;1688034;84;21181;-41
2021/01/26 11:37:16;;;;;;;6.42;4.70;;;;;;;3.74;71.37;99251.94;1687548;83;21552;-47
2021/01/26 11:39:47;;;;;;;8.65;4.97;;;;;;;3.72;71.77;99251.07;1686338;83;21158;-43
2021/01/26 11:42:15;;;;;;;7.62;4.95;;;;;;;3.71;71.85;99249.34;1654007;84;21177;-42
2021/01/26 11:44:44;;;;;;;6.92;4.78;;;;;;;3.74;71.94;99243.31;1686231;83;21138;-42
2021/01/26 11:47:12;;;;;;;7.92;5.60;;;;;;;3.76;72.08;99229.09;1639742;87;21192;-41
2021/01/26 11:49:40;;;;;;;8.78;5.58;;;;;;;3.80;72.17;99234.75;1727545;80;21138;-47
2021/01/26 11:52:08;;;;;;;11.33;5.95;;;;;;;3.85;72.30;99237.83;1732735;81;21192;-42
2021/01/26 11:54:40;;;;;;;8.88;6.62;;;;;;;3.88;72.47;99244.31;1724054;82;21187;-42
2021/01/26 11:57:16;;;;;;;8.85;6.58;;;;;;;3.93;72.86;99245.66;1688338;82;21174;-42
2021/01/26 11:59:48;;;;;;;12.20;6.92;;;;;;;3.96;73.20;99248.30;1708802;82;21108;-40
2021/01/26 12:02:21;;;;;;;10.78;6.83;;;;;;;3.96;73.48;99254.77;1710465;81;21320;-48
2021/01/26 12:04:51;;;;;;;11.00;7.60;;;;;;;3.98;73.55;99254.34;1705920;81;21534;-47
2021/01/26 12:07:22;;;;;;;11.53;7.53;;;;;;;3.99;73.54;99258.23;1725624;81;22045;-41
2021/01/26 12:09:54;;;;;;;11.22;7.58;;;;;;;4.00;73.86;99265.56;1726526;81;21436;-41
2021/01/26 12:12:29;;;;;;;10.78;6.87;;;;;;;4.01;73.81;99273.80;1732078;81;21344;-46
2021/01/26 12:16:06;;;;;;;10.03;6.00;;;;;;;4.00;73.53;99272.03;1728941;81;21204;-43
2021/01/26 12:19:17;;;;;;;9.10;6.25;;;;;;;3.97;73.49;99274.18;1729007;81;21746;-45
2021/01/26 12:22:00;;;;;;;9.03;5.80;;;;;;;3.91;73.30;99279.30;1730631;81;22157;-46
2021/01/26 12:25:36;;;;;;;10.30;5.00;;;;;;;3.87;72.99;99271.05;1723560;81;21318;-41
2021/01/26 12:28:33;;;;;;;;;;;;;;;3.85;72.55;99282.25;1724617;81;21188;-41
2021/01/26 12:31:02;;;;;;;11.60;6.00;;;;;;;3.81;73.12;99291.69;1730952;80;20714;-43
2021/01/26 12:33:30;;;;;;;8.13;5.90;;;;;;;3.81;73.76;99290.82;1730271;81;21147;-40
2021/01/26 12:35:59;;;;;;;8.18;6.35;;;;;;;3.81;73.56;99305.05;1726456;81;21187;-45
2021/01/26 12:38:27;;;;;;;8.40;6.10;;;;;;;3.81;74.11;99299.87;1731142;81;21230;-50
2021/01/26 12:40:58;;;;;;;9.03;5.78;;;;;;;3.81;74.28;99309.80;1730883;81;21569;-47
2021/01/26 12:43:34;;;;;;;8.18;5.85;;;;;;;3.83;74.49;99304.66;1726180;81;21199;-46
2021/01/26 12:46:04;;;;;;;9.08;6.28;;;;;;;3.84;74.70;99298.63;1679965;82;21595;-47
2021/01/26 12:48:32;;;;;;;10.20;6.40;;;;;;;3.84;74.96;99302.08;1694686;82;21251;-41
2021/01/26 12:51:02;;;;;;;9.25;6.30;;;;;;;3.87;75.08;99307.28;1738685;80;21171;-41
2021/01/26 12:53:30;;;;;;;10.20;6.60;;;;;;;3.85;75.41;99305.11;1735710;80;21206;-46
2021/01/26 12:55:59;;;;;;;10.53;7.28;;;;;;;3.83;75.67;99302.08;1738218;80;21726;-47
2021/01/26 12:58:27;;;;;;;9.15;6.33;;;;;;;3.80;75.65;99302.89;1734863;80;21154;-42
2021/01/26 13:00:58;;;;;;;6.53;4.80;;;;;;;3.75;75.41;99311.02;1739577;80;21618;-43
2021/01/26 13:03:28;;;;;;;4.95;3.55;;;;;;;3.68;75.12;99310.09;1713422;80;21297;-47
2021/01/26 13:05:57;;;;;;;8.75;6.22;;;;;;;3.61;72.03;99308.71;1734134;81;21186;-43
2021/01/26 13:08:25;;;;;;;5.80;4.67;;;;;;;3.57;73.58;99312.09;1720220;81;21179;-43
2021/01/26 13:11:00;;;;;;;5.85;4.25;;;;;;;3.52;73.28;99308.16;1732360;80;21179;-46
2021/01/26 13:13:30;;;;;;;7.58;5.70;;;;;;;3.48;71.24;99305.11;1698349;82;21202;-41
2021/01/26 13:15:59;;;;;;;6.70;4.87;;;;;;;3.43;73.16;99305.47;1740576;80;21199;-47
2021/01/26 13:18:27;;;;;;;7.33;5.58;;;;;;;3.39;72.83;99303.26;1742008;80;21167;-41
2021/01/26 13:20:56;;;;;;;4.45;3.42;;;;;;;3.39;71.88;99312.73;1730924;80;21518;-41
2021/01/26 13:23:24;;;;;;;2.75;2.40;;;;;;;3.36;70.05;99314.87;1742839;80;21362;-46
2021/01/26 13:25:52;;;;;;;2.83;2.27;;;;;;;3.33;68.83;99311.36;1733660;80;21645;-46
2021/01/26 13:28:20;;;;;;;3.22;2.50;;;;;;;3.28;68.44;99310.43;1723675;80;21145;-46
2021/01/26 13:30:49;;;;;;;2.90;2.60;;;;;;;3.24;68.10;99307.34;1745818;80;21208;-42
2021/01/26 13:33:17;;;;;;;2.98;2.50;;;;;;;3.19;68.54;99304.72;1741981;81;21639;-42
2021/01/26 13:35:45;;;;;;;5.30;2.92;;;;;;;3.15;68.98;99305.09;1718802;80;21947;-42
2021/01/26 13:38:13;;;;;;;4.95;2.70;;;;;;;3.14;69.36;99303.79;1742682;80;21204;-42
2021/01/26 13:40:41;;;;;;;3.90;3.02;;;;;;;3.10;69.66;99310.62;1738374;82;21559;-41
2021/01/26 13:43:09;;;;;;;3.08;2.77;;;;;;;3.07;70.18;99309.27;1723939;82;21236;-41
2021/01/26 13:45:37;;;;;;;4.70;3.25;;;;;;;3.05;70.27;99311.39;1730330;80;21232;-46
2021/01/26 13:48:06;;;;;;;3.45;3.08;;;;;;;3.03;70.50;99307.50;1742603;80;21150;-40
2021/01/26 13:50:35;;;;;;;9.00;4.00;;;;;;;3.01;70.76;99311.77;1728272;81;21158;-46
2021/01/26 13:53:04;;;;;;;6.12;3.33;;;;;;;2.97;70.98;99316.47;1717659;82;21171;-40
2021/01/26 13:55:33;;;;;;;4.28;3.50;;;;;;;2.93;71.26;99318.55;1719939;81;21171;-46
2021/01/26 13:58:01;;;;;;;4.70;3.30;;;;;;;2.91;71.64;99309.48;1720619;82;21662;-46
2021/01/26 14:00:30;;;;;;;3.95;3.27;;;;;;;2.87;71.92;99310.28;1728215;82;21203;-47
2021/01/26 14:03:01;;;;;;;5.03;3.25;;;;;;;2.82;72.55;99303.30;1727901;82;21182;-42
2021/01/26 14:05:30;;;;;;;4.33;3.87;;;;;;;2.78;72.98;99304.95;1722088;81;21204;-43
2021/01/26 14:08:01;;;;;;;5.40;3.70;;;;;;;2.72;73.48;99302.70;1725969;82;22074;-47
2021/01/26 14:10:30;;;;;;;5.78;3.50;;;;;;;2.65;74.14;99303.03;1762520;80;21216;-43
2021/01/26 14:13:01;;;;;;;5.22;3.65;;;;;;;2.59;74.55;99300.36;1713421;82;21206;-47
2021/01/26 14:15:29;;;;;;;5.25;4.10;;;;;;;2.54;75.04;99308.45;1735139;82;21897;-40
2021/01/26 14:17:58;;;;;;;6.78;3.77;;;;;;;2.48;75.44;99305.34;1725699;82;21221;-41
2021/01/26 14:20:26;;;;;;;5.37;3.70;;;;;;;2.45;76.05;99297.98;1678145;84;21517;-41
2021/01/26 14:22:55;;;;;;;6.40;4.75;;;;;;;2.39;76.34;99302.63;1686996;84;21526;-41
2021/01/26 14:25:22;;;;;;;5.50;4.42;;;;;;;2.36;76.64;99306.00;1728479;81;21947;-42
2021/01/26 14:27:51;;;;;;;8.95;6.97;;;;;;;2.34;76.85;99306.84;1723557;81;21156;-40
2021/01/26 14:30:22;;;;;;;15.35;8.43;;;;;;;2.33;77.02;99304.68;1731588;81;21174;-47
2021/01/26 14:32:51;;;;;;;16.25;10.80;;;;;;;2.33;77.24;99312.42;1721900;82;21161;-46
2021/01/26 14:35:21;;;;;;;19.75;11.97;;;;;;;2.31;77.55;99307.63;1715263;82;21248;-41
2021/01/26 14:37:49;;;;;;;19.80;12.73;;;;;;;2.30;77.80;99302.03;1716408;82;22092;-47
2021/01/26 14:40:19;;;;;;;21.60;12.78;;;;;;;2.27;78.08;99303.70;1717606;83;21680;-42
2021/01/26 14:42:48;;;;;;;16.67;11.53;;;;;;;2.23;78.40;99306.64;1717300;82;21170;-41
2021/01/26 14:45:17;;;;;;;17.67;11.53;;;;;;;2.19;78.62;99300.97;1717198;83;21142;-41
2021/01/26 14:47:45;;;;;;;14.15;9.85;;;;;;;2.19;78.76;99303.55;1735323;82;21153;-47
2021/01/26 14:50:17;;;;;;;12.78;8.18;;;;;;;2.20;78.93;99314.74;1734691;82;21194;-47
2021/01/26 14:52:45;;;;;;;12.33;7.33;;;;;;;2.21;78.93;99323.83;1720378;82;21197;-42
2021/01/26 14:55:13;;;;;;;13.22;6.85;;;;;;;2.20;78.91;99318.19;1737639;82;21186;-48
2021/01/26 14:57:41;;;;;;;8.85;7.05;;;;;;;2.21;78.97;99320.38;1744655;80;21191;-43
2021/01/26 15:00:12;;;;;;;13.40;6.53;;;;;;;2.22;79.06;99330.72;1749261;82;21204;-41
2021/01/26 15:02:40;;;;;;;11.12;7.28;;;;;;;2.23;79.09;99331.59;1749465;82;21162;-41
2021/01/26 15:05:11;;;;;;;10.15;6.80;;;;;;;2.22;79.12;99330.72;1750007;81;21240;-41
2021/01/26 15:07:39;;;;;;;13.13;6.40;;;;;;;2.18;79.28;99330.20;1750033;82;21610;-43
2021/01/26 15:10:08;;;;;;;12.68;6.65;;;;;;;2.15;79.64;99334.05;1749926;81;21166;-41
2021/01/26 15:12:36;;;;;;;10.68;6.95;;;;;;;2.11;79.83;99334.39;1749539;82;21162;-47
2021/01/26 15:15:06;;;;;;;9.90;6.45;;;;;;;2.10;80.17;99332.66;1750012;82;21215;-41
2021/01/26 15:17:34;;;;;;;11.50;7.37;;;;;;;2.08;80.42;99342.06;1750310;82;21139;-42
2021/01/26 15:20:05;;;;;;;9.25;7.28;;;;;;;2.05;80.65;99342.02;1750140;81;21155;-47
2021/01/26 15:22:33;;;;;;;11.55;8.05;;;;;;;2.05;80.87;99351.05;1750214;81;21166;-42
2021/01/26 15:25:01;;;;;;;13.65;7.58;;;;;;;2.05;81.09;99353.63;1750186;82;21162;-42
2021/01/26 15:27:29;;;;;;;13.95;9.28;;;;;;;2.05;81.31;99344.60;1750431;82;21587;-47
2021/01/26 15:29:57;;;;;;;12.85;9.00;;;;;;;2.06;81.52;99348.05;1750495;81;21571;-46
2021/01/26 15:32:25;;;;;;;14.40;8.93;;;;;;;2.07;81.69;99349.78;1750704;82;21222;-47
2021/01/26 15:34:53;;;;;;;13.50;9.65;;;;;;;2.07;81.89;99348.06;1750779;82;21187;-41
2021/01/26 15:37:21;;;;;;;15.43;8.93;;;;;;;2.06;82.16;99350.20;1750694;82;21155;-46
2021/01/26 15:39:51;;;;;;;16.45;9.98;;;;;;;2.07;82.37;99345.48;1750581;82;21147;-47
2021/01/26 15:42:18;;;;;;;17.05;9.80;;;;;;;2.06;82.53;99346.33;1750646;80;21306;-43
2021/01/26 15:44:47;;;;;;;12.58;7.95;;;;;;;2.06;82.86;99351.92;1750525;82;21163;-41
2021/01/26 15:47:15;;;;;;;12.23;7.80;;;;;;;2.10;83.04;99361.47;1750781;82;21665;-41
2021/01/26 15:49:46;;;;;;;14.13;7.47;;;;;;;2.10;83.04;99363.63;1750548;82;21194;-41
2021/01/26 15:52:14;;;;;;;13.78;9.23;;;;;;;2.10;83.08;99359.75;1750480;81;21674;-47
2021/01/26 15:54:41;;;;;;;13.43;8.45;;;;;;;2.08;83.01;99365.70;1750592;82;21626;-43
2021/01/26 15:57:09;;;;;;;13.68;8.70;;;;;;;2.05;83.15;99361.37;1750656;82;21165;-41
2021/01/26 15:59:38;;;;;;;14.70;8.75;;;;;;;2.01;83.15;99366.02;1750577;82;21697;-43
2021/01/26 16:02:06;;;;;;;14.33;10.08;;;;;;;1.97;83.29;99355.59;1750701;82;21194;-41
2021/01/26 16:04:34;;;;;;;12.78;8.65;;;;;;;1.92;83.43;99351.66;1750716;82;21166;-41
2021/01/26 16:07:01;;;;;;;14.78;9.33;;;;;;;1.88;83.64;99355.44;1750695;82;21555;-41
2021/01/26 16:09:31;;;;;;;13.18;9.68;;;;;;;1.84;83.79;99350.63;1750459;81;21167;-42
2021/01/26 16:12:00;;;;;;;15.55;8.58;;;;;;;1.79;83.95;99351.81;1739057;82;21643;-41
2021/01/26 16:14:28;;;;;;;15.85;10.50;;;;;;;1.75;84.24;99359.06;1712403;84;21191;-46
2021/01/26 16:16:56;;;;;;;13.98;8.70;;;;;;;1.73;84.37;99364.59;1714407;82;21175;-46
2021/01/26 16:19:24;;;;;;;15.43;9.83;;;;;;;1.70;84.55;99369.70;1720727;83;21186;-46
2021/01/26 16:21:52;;;;;;;14.18;10.00;;;;;;;1.69;84.61;99371.83;1720791;82;21188;-42
2021/01/26 16:24:20;;;;;;;20.48;10.58;;;;;;;1.67;84.68;99373.91;1720606;82;21201;-42
2021/01/26 16:26:48;;;;;;;17.92;10.45;;;;;;;1.65;84.81;99370.44;1720732;83;21197;-41
2021/01/26 16:29:15;;;;;;;17.02;10.30;;;;;;;1.63;85.02;99368.27;1720611;82;21188;-46
2021/01/26 16:31:43;;;;;;;19.20;12.10;;;;;;;1.61;85.08;99374.66;1720482;83;21332;-47
2021/01/26 16:34:12;;;;;;;25.05;13.22;;;;;;;1.58;85.19;99371.60;1720429;83;21189;-46
2021/01/26 16:36:40;;;;;;;26.45;12.95;;;;;;;1.58;85.35;99372.03;1720500;83;21234;-47
2021/01/26 16:39:08;;;;;;;22.42;12.35;;;;;;;1.59;85.61;99378.50;1720534;83;21185;-46
2021/01/26 16:41:36;;;;;;;21.05;13.40;;;;;;;1.60;85.55;99376.78;1720578;83;21192;-41
2021/01/26 16:44:05;;;;;;;19.30;13.32;;;;;;;1.61;85.55;99378.52;1721033;82;21189;-45
2021/01/26 16:46:32;;;;;;;20.50;13.55;;;;;;;1.62;85.66;99370.36;1720894;83;21210;-41
2021/01/26 16:49:01;;;;;;;16.45;12.07;;;;;;;1.63;85.74;99378.58;1720979;83;21366;-41
2021/01/26 16:51:28;;;;;;;19.87;13.48;;;;;;;1.67;86.01;99382.94;1720883;83;21187;-47
2021/01/26 16:53:56;;;;;;;25.25;16.05;;;;;;;1.70;85.85;99387.75;1720833;83;21797;-47
2021/01/26 16:56:24;;;;;;;22.70;15.43;;;;;;;1.73;85.95;99395.95;1720945;82;21670;-42
2021/01/26 16:58:52;;;;;;;20.10;13.13;;;;;;;1.79;86.02;99396.08;1720817;83;21165;-42
2021/01/26 17:01:20;;;;;;;21.00;14.13;;;;;;;1.81;85.75;99391.42;1720920;83;21213;-42
2021/01/26 17:03:48;;;;;;;21.73;15.72;;;;;;;1.80;85.47;99390.12;1720851;83;21186;-44
2021/01/26 17:06:17;;;;;;;19.67;12.68;;;;;;;1.77;85.53;99397.77;1720967;83;21230;-48
2021/01/26 17:08:45;;;;;;;21.23;14.25;;;;;;;1.75;85.56;99399.04;1720909;83;21207;-42
2021/01/26 17:11:13;;;;;;;22.17;13.88;;;;;;;1.74;85.69;99397.30;1720684;82;21157;-46
2021/01/26 17:13:41;;;;;;;18.75;13.15;;;;;;;1.73;85.68;99385.64;1720522;82;21153;-47
2021/01/26 17:16:09;;;;;;;18.95;12.85;;;;;;;1.70;85.78;99390.33;1720864;83;21319;-46
2021/01/26 17:18:37;;;;;;;22.40;15.18;;;;;;;1.70;85.85;99389.47;1720785;83;21346;-47
2021/01/26 17:21:05;;;;;;;22.67;13.25;;;;;;;1.68;86.04;99384.28;1720854;83;21208;-47
2021/01/26 17:23:39;;;;;;;19.23;13.85;;;;;;;1.72;86.25;99386.48;1721038;83;21169;-41
2021/01/26 17:26:08;;;;;;;21.05;14.83;;;;;;;1.78;86.43;99393.92;1720938;83;21157;-47
2021/01/26 17:28:35;;;;;;;20.35;13.83;;;;;;;1.86;86.27;99397.55;1720734;82;21312;-47
2021/01/26 17:31:03;;;;;;;21.02;14.23;;;;;;;1.91;85.91;99402.78;1720900;83;21686;-47
2021/01/26 17:33:32;;;;;;;21.42;14.98;;;;;;;1.91;85.50;99395.05;1720888;83;21165;-46
2021/01/26 17:36:00;;;;;;;20.50;14.07;;;;;;;1.92;85.43;99400.68;1720774;82;21217;-42
2021/01/26 17:38:29;;;;;;;24.30;14.87;;;;;;;1.95;85.47;99406.31;1720945;82;21625;-46
2021/01/26 17:40:57;;;;;;;21.80;13.65;;;;;;;1.98;85.44;99408.55;1720661;83;21157;-46
2021/01/26 17:43:24;;;;;;;21.57;13.72;;;;;;;2.01;85.31;99403.84;1721056;83;21197;-47
2021/01/26 17:45:54;;;;;;;23.20;15.28;;;;;;;2.02;85.04;99398.71;1742500;82;21166;-46
2021/01/26 17:48:23;;;;;;;22.60;14.20;;;;;;;2.03;84.86;99396.61;1738361;82;21606;-41
2021/01/26 17:50:56;;;;;;;19.67;14.05;;;;;;;2.03;84.71;99397.00;1735344;81;21614;-46
2021/01/26 17:53:27;;;;;;;23.07;15.55;;;;;;;1.99;84.55;99405.55;1735905;82;21138;-41
2021/01/26 17:55:59;;;;;;;71.57;37.67;;;;;;;1.95;84.63;99405.88;1732407;82;21198;-46
2021/01/26 17:58:27;;;;;;;57.17;33.02;;;;;;;1.95;84.75;99402.02;1730682;82;21170;-47
2021/01/26 18:00:55;;;;;;;62.48;35.45;;;;;;;1.97;84.83;99399.06;1733426;80;21162;-47
2021/01/26 18:03:23;;;;;;;37.50;24.77;;;;;;;1.97;85.07;99391.33;1740891;82;21139;-43
2021/01/26 18:05:52;;;;;;;34.88;22.58;;;;;;;1.99;85.28;99397.38;1736319;82;21150;-47
2021/01/26 18:08:21;;;;;;;34.88;21.05;;;;;;;2.04;85.25;99399.63;1750561;82;21645;-40
2021/01/26 18:10:49;;;;;;;40.70;23.65;;;;;;;2.10;85.16;99397.59;1750543;81;21174;-41
2021/01/26 18:13:17;;;;;;;39.98;18.23;;;;;;;2.15;84.98;99401.14;1750612;82;21487;-47
2021/01/26 18:15:44;;;;;;;35.43;21.48;;;;;;;2.19;84.68;99399.05;1750831;81;21155;-42
2021/01/26 18:18:12;;;;;;;33.78;21.35;;;;;;;2.17;84.46;99404.61;1750695;82;21162;-48
2021/01/26 18:20:40;;;;;;;34.00;21.73;;;;;;;2.17;84.47;99399.45;1740379;81;21277;-47
2021/01/26 18:23:08;;;;;;;27.82;18.80;;;;;;;2.20;84.34;99402.07;1732110;82;21119;-47
2021/01/26 18:25:37;;;;;;;26.07;18.07;;;;;;;2.22;83.95;99398.25;1750162;81;21200;-42
2021/01/26 18:28:05;;;;;;;32.20;20.17;;;;;;;2.19;83.75;99396.89;1721891;82;21182;-41
2021/01/26 18:30:34;;;;;;;27.77;17.45;;;;;;;2.16;83.89;99402.88;1736550;82;21191;-47
2021/01/26 18:33:03;;;;;;;27.22;18.52;;;;;;;2.17;84.06;99397.29;1720349;82;22013;-42
2021/01/26 18:35:34;;;;;;;29.82;18.90;;;;;;;2.19;84.25;99395.59;1720657;83;21203;-42
2021/01/26 18:38:01;;;;;;;29.23;18.45;;;;;;;2.23;84.17;99394.40;1720764;83;21226;-47
2021/01/26 18:40:30;;;;;;;33.40;19.42;;;;;;;2.28;84.04;99397.08;1720831;83;21178;-43
2021/01/26 18:42:58;;;;;;;31.07;18.25;;;;;;;2.30;83.90;99410.87;1720939;82;21166;-48
2021/01/26 18:45:29;;;;;;;32.45;18.87;;;;;;;2.32;83.83;99416.92;1720861;83;21164;-42
2021/01/26 18:47:57;;;;;;;31.33;18.52;;;;;;;2.35;83.35;99414.41;1721051;83;21615;-48
2021/01/26 18:50:25;;;;;;;34.58;19.20;;;;;;;2.32;83.30;99419.11;1718921;82;21220;-41
2021/01/26 18:52:53;;;;;;;29.20;19.87;;;;;;;2.30;83.15;99420.77;1713254;83;21587;-46
2021/01/26 18:55:23;;;;;;;32.45;19.15;;;;;;;2.28;83.18;99408.27;1713124;83;21218;-41
2021/01/26 18:57:51;;;;;;;35.00;20.23;;;;;;;2.27;82.94;99408.25;1713088;82;21623;-46
2021/01/26 19:00:19;;;;;;;29.67;19.87;;;;;;;2.22;82.57;99413.31;1713002;84;21171;-46
2021/01/26 19:02:47;;;;;;;29.92;19.65;;;;;;;2.18;82.52;99410.64;1713189;84;21127;-47
2021/01/26 19:05:17;;;;;;;31.05;20.55;;;;;;;2.12;82.47;99401.93;1712908;83;21699;-42